EDT,Max TemperatureF,Mean TemperatureF,Min TemperatureF,Max Dew PointF,MeanDew PointF,Min DewpointF,Max Humidity, Mean Humidity, Min Humidity, Max Sea Level PressureIn, Mean Sea Level PressureIn, Min Sea Level PressureIn, Max VisibilityMiles, Mean VisibilityMiles, Min VisibilityMiles, Max Wind SpeedMPH, Mean Wind SpeedMPH, Max Gust SpeedMPH,PrecipitationIn, CloudCover, Events, WindDirDegrees
2014-4-1,78,68,58,61,57,55,97,72,47,30.18,30.14,30.10,10,10,10,15,5,20,0.00,1,,81
2014-4-2,79,69,59,59,57,53,84,65,46,30.19,30.16,30.12,10,10,10,18,8,24,0.00,1,,116
2014-4-3,81,75,69,63,61,58,70,61,51,30.16,30.11,30.07,10,10,10,20,11,25,0.00,4,,131
2014-4-4,83,77,71,64,62,59,73,60,47,30.09,30.04,30.01,10,10,10,21,11,25,0.00,4,,145
2014-4-5,85,76,66,66,64,60,87,67,47,30.06,30.02,29.98,10,10,10,17,8,24,0.00,3,,174
2014-4-6,86,77,67,66,65,63,90,69,48,30.04,29.99,29.94,10,10,10,18,9,26,0.00,4,,150
2014-4-7,87,81,75,74,69,66,85,68,50,29.98,29.93,29.87,10,10,10,24,14,31,T,5,,155
2014-4-8,92,80,67,75,70,61,94,71,47,29.92,29.84,29.75,10,10,10,31,16,44,0.06,7,Rain,206
2014-4-9,78,70,61,64,53,46,87,60,33,30.16,30.00,29.88,10,10,10,25,11,31,0.00,5,,308
2014-4-10,78,69,59,55,51,45,84,58,31,30.27,30.21,30.15,10,10,10,21,11,25,0.00,3,,53
2014-4-11,79,72,64,67,63,57,79,70,60,30.23,30.17,30.13,10,9,1,21,9,24,0.32,6,Rain,101
2014-4-12,81,76,71,64,62,59,79,64,49,30.19,30.13,30.09,10,10,10,20,12,25,T,4,,67
2014-4-13,82,78,74,70,67,63,82,72,62,30.10,30.05,30.01,10,10,7,23,17,29,0.03,6,Rain,80
2014-4-14,87,81,74,72,70,69,87,74,61,30.01,29.96,29.91,10,10,5,20,12,26,0.09,5,Rain,138
2014-4-15,87,80,73,76,72,70,93,76,59,29.93,29.89,29.83,10,10,2,22,10,29,0.19,5,Rain,168
2014-4-16,79,74,69,72,67,62,93,79,64,30.08,30.00,29.92,10,10,2,22,13,27,0.03,6,Rain,6
2014-4-17,83,79,75,71,69,68,82,74,65,30.15,30.09,30.05,10,10,10,23,15,31,0.03,7,Rain,71
2014-4-18,84,79,73,72,70,67,93,76,58,30.09,30.02,29.95,10,10,6,24,15,29,0.04,6,Rain-Thunderstorm,128
2014-4-19,87,76,65,73,68,59,87,70,53,29.97,29.92,29.87,10,9,7,24,12,29,0.25,5,Rain-Thunderstorm,235
2014-4-20,78,71,64,61,58,55,81,69,56,30.04,30.00,29.94,10,10,10,16,10,21,0.00,6,,318
2014-4-21,81,71,60,64,60,58,90,71,51,30.04,29.99,29.93,10,10,10,17,9,26,0.00,4,,334
2014-4-22,83,74,65,67,64,61,93,74,54,29.95,29.90,29.84,10,10,10,12,5,14,0.00,5,,234
2014-4-23,84,75,65,67,63,61,87,67,47,29.95,29.91,29.87,10,10,10,13,7,16,0.00,2,,268
2014-4-24,85,76,67,68,65,61,84,66,48,30.01,29.97,29.93,10,10,10,18,8,23,0.00,2,,148
2014-4-25,90,79,68,71,66,58,84,59,34,30.02,29.96,29.91,10,10,10,16,7,24,0.00,3,,220
2014-4-26,87,78,69,70,67,63,84,65,45,30.01,29.97,29.92,10,10,7,16,8,20,0.00,1,,55
2014-4-27,89,80,71,70,66,57,93,65,36,30.02,29.98,29.95,10,10,10,17,9,23,0.00,3,,128
2014-4-28,89,83,77,72,69,65,79,67,55,29.99,29.94,29.91,10,10,10,18,13,27,0.00,4,,139
2014-4-29,88,83,78,76,73,70,85,71,57,30.02,29.95,29.89,10,10,10,24,13,32,0.00,4,,143
2014-4-30,91,85,79,75,72,70,85,69,52,30.07,30.02,29.96,10,10,10,22,13,28,0.00,5,,143